sensor_id;sensor_type;location;lat;lon;timestamp;P1;durP1;ratioP1;P2;durP2;ratioP2
72493;SDS011;60520;49.182;-0.348;2023-02-25T00:01:11;2.30;;;1.00;;
72493;SDS011;60520;49.182;-0.348;2023-02-25T00:03:38;1.95;;;1.20;;
72493;SDS011;60520;49.182;-0.348;2023-02-25T00:06:06;2.30;;;1.20;;
72493;SDS011;60520;49.182;-0.348;2023-02-25T00:08:33;2.42;;;1.20;;
72493;SDS011;60520;49.182;-0.348;2023-02-25T00:11:03;3.55;;;1.35;;
72493;SDS011;60520;49.182;-0.348;2023-02-25T00:13:30;2.92;;;1.10;;
72493;SDS011;60520;49.182;-0.348;2023-02-25T00:15:58;2.70;;;1.33;;
72493;SDS011;60520;49.182;-0.348;2023-02-25T00:18:25;2.83;;;1.35;;
72493;SDS011;60520;49.182;-0.348;2023-02-25T00:20:52;2.35;;;1.17;;
72493;SDS011;60520;49.182;-0.348;2023-02-25T00:23:19;4.63;;;1.35;;
72493;SDS011;60520;49.182;-0.348;2023-02-25T00:25:46;2.78;;;1.40;;
72493;SDS011;60520;49.182;-0.348;2023-02-25T00:28:15;4.35;;;1.45;;
72493;SDS011;60520;49.182;-0.348;2023-02-25T00:30:42;2.58;;;1.30;;
72493;SDS011;60520;49.182;-0.348;2023-02-25T00:33:09;2.58;;;1.42;;
72493;SDS011;60520;49.182;-0.348;2023-02-25T00:35:39;1.85;;;1.25;;
72493;SDS011;60520;49.182;-0.348;2023-02-25T00:38:06;1.92;;;1.23;;
72493;SDS011;60520;49.182;-0.348;2023-02-25T00:40:36;3.15;;;1.38;;
72493;SDS011;60520;49.182;-0.348;2023-02-25T00:43:03;2.78;;;1.30;;
72493;SDS011;60520;49.182;-0.348;2023-02-25T00:45:32;3.05;;;1.27;;
72493;SDS011;60520;49.182;-0.348;2023-02-25T00:47:59;2.15;;;1.10;;
72493;SDS011;60520;49.182;-0.348;2023-02-25T00:50:26;2.45;;;1.00;;
72493;SDS011;60520;49.182;-0.348;2023-02-25T00:52:53;2.50;;;1.30;;
72493;SDS011;60520;49.182;-0.348;2023-02-25T00:55:20;2.42;;;1.40;;
72493;SDS011;60520;49.182;-0.348;2023-02-25T00:57:47;2.53;;;1.30;;
72493;SDS011;60520;49.182;-0.348;2023-02-25T01:00:15;2.42;;;1.20;;
72493;SDS011;60520;49.182;-0.348;2023-02-25T01:02:44;3.63;;;1.38;;
72493;SDS011;60520;49.182;-0.348;2023-02-25T01:05:11;2.78;;;1.20;;
72493;SDS011;60520;49.182;-0.348;2023-02-25T01:07:38;2.88;;;1.40;;
72493;SDS011;60520;49.182;-0.348;2023-02-25T01:10:05;2.50;;;1.20;;
72493;SDS011;60520;49.182;-0.348;2023-02-25T01:12:35;3.70;;;1.42;;
72493;SDS011;60520;49.182;-0.348;2023-02-25T01:15:02;2.92;;;1.20;;
72493;SDS011;60520;49.182;-0.348;2023-02-25T01:17:29;2.38;;;1.30;;
72493;SDS011;60520;49.182;-0.348;2023-02-25T01:19:58;2.78;;;1.30;;
72493;SDS011;60520;49.182;-0.348;2023-02-25T01:22:25;3.45;;;1.55;;
72493;SDS011;60520;49.182;-0.348;2023-02-25T01:24:53;2.58;;;1.30;;
72493;SDS011;60520;49.182;-0.348;2023-02-25T01:27:20;3.75;;;1.40;;
72493;SDS011;60520;49.182;-0.348;2023-02-25T01:29:48;2.00;;;1.10;;
72493;SDS011;60520;49.182;-0.348;2023-02-25T01:32:15;3.92;;;1.50;;
72493;SDS011;60520;49.182;-0.348;2023-02-25T01:34:42;2.50;;;1.23;;
72493;SDS011;60520;49.182;-0.348;2023-02-25T01:37:11;2.28;;;1.17;;
72493;SDS011;60520;49.182;-0.348;2023-02-25T01:39:39;2.38;;;1.30;;
72493;SDS011;60520;49.182;-0.348;2023-02-25T01:42:10;1.83;;;1.20;;
72493;SDS011;60520;49.182;-0.348;2023-02-25T01:47:20;3.38;;;1.55;;
72493;SDS011;60520;49.182;-0.348;2023-02-25T01:49:47;1.88;;;1.20;;
72493;SDS011;60520;49.182;-0.348;2023-02-25T01:52:19;2.85;;;1.35;;
72493;SDS011;60520;49.182;-0.348;2023-02-25T01:54:47;3.53;;;1.48;;
72493;SDS011;60520;49.182;-0.348;2023-02-25T01:57:16;2.88;;;1.10;;
72493;SDS011;60520;49.182;-0.348;2023-02-25T01:59:43;3.30;;;1.20;;
72493;SDS011;60520;49.182;-0.348;2023-02-25T02:02:12;4.20;;;1.30;;
72493;SDS011;60520;49.182;-0.348;2023-02-25T02:04:40;2.80;;;1.15;;
72493;SDS011;60520;49.182;-0.348;2023-02-25T02:07:08;2.65;;;1.40;;
72493;SDS011;60520;49.182;-0.348;2023-02-25T02:09:38;2.80;;;1.40;;
72493;SDS011;60520;49.182;-0.348;2023-02-25T02:12:20;2.42;;;1.05;;
72493;SDS011;60520;49.182;-0.348;2023-02-25T02:14:47;1.80;;;1.13;;
72493;SDS011;60520;49.182;-0.348;2023-02-25T02:17:17;2.65;;;1.30;;
72493;SDS011;60520;49.182;-0.348;2023-02-25T02:20:01;2.25;;;1.10;;
72493;SDS011;60520;49.182;-0.348;2023-02-25T02:22:35;3.05;;;1.10;;
72493;SDS011;60520;49.182;-0.348;2023-02-25T02:27:56;2.80;;;0.95;;
72493;SDS011;60520;49.182;-0.348;2023-02-25T02:30:32;2.72;;;1.35;;
72493;SDS011;60520;49.182;-0.348;2023-02-25T02:33:03;3.42;;;1.30;;
72493;SDS011;60520;49.182;-0.348;2023-02-25T02:35:34;3.55;;;1.48;;
72493;SDS011;60520;49.182;-0.348;2023-02-25T02:38:06;2.58;;;1.42;;
72493;SDS011;60520;49.182;-0.348;2023-02-25T02:40:41;3.70;;;1.38;;
72493;SDS011;60520;49.182;-0.348;2023-02-25T02:43:14;3.00;;;1.63;;
72493;SDS011;60520;49.182;-0.348;2023-02-25T02:45:43;2.85;;;1.38;;
72493;SDS011;60520;49.182;-0.348;2023-02-25T02:48:16;3.45;;;1.23;;
72493;SDS011;60520;49.182;-0.348;2023-02-25T02:50:44;3.05;;;1.20;;
72493;SDS011;60520;49.182;-0.348;2023-02-25T02:53:12;3.55;;;1.50;;
72493;SDS011;60520;49.182;-0.348;2023-02-25T02:55:40;3.53;;;1.25;;
72493;SDS011;60520;49.182;-0.348;2023-02-25T02:58:10;2.40;;;1.08;;
72493;SDS011;60520;49.182;-0.348;2023-02-25T03:00:40;3.80;;;1.40;;
72493;SDS011;60520;49.182;-0.348;2023-02-25T03:03:09;2.33;;;1.10;;
72493;SDS011;60520;49.182;-0.348;2023-02-25T03:05:40;3.60;;;1.30;;
72493;SDS011;60520;49.182;-0.348;2023-02-25T03:08:09;4.35;;;1.45;;
72493;SDS011;60520;49.182;-0.348;2023-02-25T03:10:37;2.25;;;1.15;;
72493;SDS011;60520;49.182;-0.348;2023-02-25T03:13:04;3.92;;;1.60;;
72493;SDS011;60520;49.182;-0.348;2023-02-25T03:15:31;2.88;;;1.35;;
72493;SDS011;60520;49.182;-0.348;2023-02-25T03:18:01;2.63;;;1.20;;
72493;SDS011;60520;49.182;-0.348;2023-02-25T03:20:29;5.07;;;1.42;;
72493;SDS011;60520;49.182;-0.348;2023-02-25T03:23:01;3.50;;;1.42;;
72493;SDS011;60520;49.182;-0.348;2023-02-25T03:25:30;3.92;;;1.38;;
72493;SDS011;60520;49.182;-0.348;2023-02-25T03:27:58;3.92;;;1.17;;
72493;SDS011;60520;49.182;-0.348;2023-02-25T03:30:28;4.65;;;1.48;;
72493;SDS011;60520;49.182;-0.348;2023-02-25T03:32:57;3.30;;;1.48;;
72493;SDS011;60520;49.182;-0.348;2023-02-25T03:35:25;2.78;;;1.10;;
72493;SDS011;60520;49.182;-0.348;2023-02-25T03:37:54;4.30;;;1.52;;
72493;SDS011;60520;49.182;-0.348;2023-02-25T03:40:26;2.30;;;1.05;;
72493;SDS011;60520;49.182;-0.348;2023-02-25T03:42:55;3.45;;;1.30;;
72493;SDS011;60520;49.182;-0.348;2023-02-25T03:45:24;2.72;;;1.23;;
72493;SDS011;60520;49.182;-0.348;2023-02-25T03:47:52;2.75;;;1.30;;
72493;SDS011;60520;49.182;-0.348;2023-02-25T03:50:21;6.05;;;1.33;;
72493;SDS011;60520;49.182;-0.348;2023-02-25T03:52:49;2.75;;;1.20;;
72493;SDS011;60520;49.182;-0.348;2023-02-25T03:55:16;3.13;;;1.35;;
72493;SDS011;60520;49.182;-0.348;2023-02-25T03:57:47;3.83;;;1.48;;
72493;SDS011;60520;49.182;-0.348;2023-02-25T04:00:16;3.58;;;1.35;;
72493;SDS011;60520;49.182;-0.348;2023-02-25T04:02:46;3.95;;;1.25;;
72493;SDS011;60520;49.182;-0.348;2023-02-25T04:05:14;3.50;;;1.38;;
72493;SDS011;60520;49.182;-0.348;2023-02-25T04:07:42;3.67;;;1.20;;
72493;SDS011;60520;49.182;-0.348;2023-02-25T04:10:10;3.80;;;1.38;;
72493;SDS011;60520;49.182;-0.348;2023-02-25T04:12:38;4.70;;;1.40;;
72493;SDS011;60520;49.182;-0.348;2023-02-25T04:15:07;3.75;;;1.58;;
72493;SDS011;60520;49.182;-0.348;2023-02-25T04:17:35;3.83;;;1.23;;
72493;SDS011;60520;49.182;-0.348;2023-02-25T04:20:02;3.33;;;1.17;;
72493;SDS011;60520;49.182;-0.348;2023-02-25T04:22:30;2.55;;;1.15;;
72493;SDS011;60520;49.182;-0.348;2023-02-25T04:24:57;3.67;;;1.13;;
72493;SDS011;60520;49.182;-0.348;2023-02-25T04:27:25;3.35;;;1.33;;
72493;SDS011;60520;49.182;-0.348;2023-02-25T04:29:52;3.38;;;1.50;;
72493;SDS011;60520;49.182;-0.348;2023-02-25T04:32:20;3.13;;;1.10;;
72493;SDS011;60520;49.182;-0.348;2023-02-25T04:34:47;2.45;;;1.10;;
72493;SDS011;60520;49.182;-0.348;2023-02-25T04:37:14;3.55;;;1.40;;
72493;SDS011;60520;49.182;-0.348;2023-02-25T04:39:42;4.03;;;1.50;;
72493;SDS011;60520;49.182;-0.348;2023-02-25T04:42:09;2.78;;;1.25;;
72493;SDS011;60520;49.182;-0.348;2023-02-25T04:44:36;5.05;;;1.42;;
72493;SDS011;60520;49.182;-0.348;2023-02-25T04:47:03;2.50;;;1.00;;
72493;SDS011;60520;49.182;-0.348;2023-02-25T04:49:32;3.47;;;1.35;;
72493;SDS011;60520;49.182;-0.348;2023-02-25T04:52:09;3.85;;;1.20;;
72493;SDS011;60520;49.182;-0.348;2023-02-25T04:54:36;3.45;;;0.98;;
72493;SDS011;60520;49.182;-0.348;2023-02-25T04:57:03;2.03;;;1.10;;
72493;SDS011;60520;49.182;-0.348;2023-02-25T04:59:31;2.65;;;1.23;;
72493;SDS011;60520;49.182;-0.348;2023-02-25T05:01:58;2.53;;;1.05;;
72493;SDS011;60520;49.182;-0.348;2023-02-25T05:04:25;1.92;;;0.90;;
72493;SDS011;60520;49.182;-0.348;2023-02-25T05:06:54;3.42;;;1.10;;
72493;SDS011;60520;49.182;-0.348;2023-02-25T05:09:21;3.13;;;1.10;;
72493;SDS011;60520;49.182;-0.348;2023-02-25T05:11:48;2.38;;;1.08;;
72493;SDS011;60520;49.182;-0.348;2023-02-25T05:14:15;2.10;;;0.95;;
72493;SDS011;60520;49.182;-0.348;2023-02-25T05:16:42;3.75;;;1.25;;
72493;SDS011;60520;49.182;-0.348;2023-02-25T05:19:13;3.50;;;1.27;;
72493;SDS011;60520;49.182;-0.348;2023-02-25T05:21:41;3.58;;;1.20;;
72493;SDS011;60520;49.182;-0.348;2023-02-25T05:24:10;2.92;;;1.10;;
72493;SDS011;60520;49.182;-0.348;2023-02-25T05:26:37;2.67;;;0.98;;
72493;SDS011;60520;49.182;-0.348;2023-02-25T05:29:04;3.13;;;1.35;;
72493;SDS011;60520;49.182;-0.348;2023-02-25T05:31:32;2.45;;;1.00;;
72493;SDS011;60520;49.182;-0.348;2023-02-25T05:33:59;2.60;;;1.20;;
72493;SDS011;60520;49.182;-0.348;2023-02-25T05:36:26;2.67;;;1.10;;
72493;SDS011;60520;49.182;-0.348;2023-02-25T05:38:54;2.05;;;1.10;;
72493;SDS011;60520;49.182;-0.348;2023-02-25T05:41:24;3.60;;;1.42;;
72493;SDS011;60520;49.182;-0.348;2023-02-25T05:43:51;3.88;;;1.25;;
72493;SDS011;60520;49.182;-0.348;2023-02-25T05:46:18;3.72;;;1.17;;
72493;SDS011;60520;49.182;-0.348;2023-02-25T05:48:46;3.35;;;1.10;;
72493;SDS011;60520;49.182;-0.348;2023-02-25T05:51:14;4.07;;;1.30;;
72493;SDS011;60520;49.182;-0.348;2023-02-25T05:53:42;4.25;;;1.10;;
72493;SDS011;60520;49.182;-0.348;2023-02-25T05:56:11;2.55;;;1.00;;
72493;SDS011;60520;49.182;-0.348;2023-02-25T05:58:39;3.92;;;1.40;;
72493;SDS011;60520;49.182;-0.348;2023-02-25T06:01:07;3.95;;;1.23;;
72493;SDS011;60520;49.182;-0.348;2023-02-25T06:03:37;2.40;;;1.00;;
72493;SDS011;60520;49.182;-0.348;2023-02-25T06:06:05;2.63;;;1.10;;
72493;SDS011;60520;49.182;-0.348;2023-02-25T06:08:32;2.33;;;1.02;;
72493;SDS011;60520;49.182;-0.348;2023-02-25T06:10:59;4.10;;;1.42;;
72493;SDS011;60520;49.182;-0.348;2023-02-25T06:13:28;2.25;;;1.10;;
72493;SDS011;60520;49.182;-0.348;2023-02-25T06:15:56;3.35;;;1.20;;
72493;SDS011;60520;49.182;-0.348;2023-02-25T06:18:23;2.78;;;1.05;;
72493;SDS011;60520;49.182;-0.348;2023-02-25T06:20:50;3.15;;;1.23;;
72493;SDS011;60520;49.182;-0.348;2023-02-25T06:23:18;2.70;;;1.15;;
72493;SDS011;60520;49.182;-0.348;2023-02-25T06:25:46;3.10;;;1.05;;
72493;SDS011;60520;49.182;-0.348;2023-02-25T06:28:13;2.28;;;0.90;;
72493;SDS011;60520;49.182;-0.348;2023-02-25T06:30:40;2.50;;;0.90;;
72493;SDS011;60520;49.182;-0.348;2023-02-25T06:33:09;2.08;;;1.02;;
72493;SDS011;60520;49.182;-0.348;2023-02-25T06:35:36;2.92;;;1.05;;
72493;SDS011;60520;49.182;-0.348;2023-02-25T06:38:03;2.67;;;1.00;;
72493;SDS011;60520;49.182;-0.348;2023-02-25T06:40:30;2.90;;;1.00;;
72493;SDS011;60520;49.182;-0.348;2023-02-25T06:42:58;3.47;;;1.38;;
72493;SDS011;60520;49.182;-0.348;2023-02-25T06:45:25;2.28;;;1.20;;
72493;SDS011;60520;49.182;-0.348;2023-02-25T06:47:52;2.88;;;1.10;;
72493;SDS011;60520;49.182;-0.348;2023-02-25T06:50:20;3.13;;;1.20;;
72493;SDS011;60520;49.182;-0.348;2023-02-25T06:52:47;3.20;;;1.10;;
72493;SDS011;60520;49.182;-0.348;2023-02-25T06:55:15;3.30;;;1.20;;
72493;SDS011;60520;49.182;-0.348;2023-02-25T06:57:42;1.58;;;1.10;;
72493;SDS011;60520;49.182;-0.348;2023-02-25T07:00:09;3.03;;;1.00;;
72493;SDS011;60520;49.182;-0.348;2023-02-25T07:02:37;3.63;;;1.23;;
72493;SDS011;60520;49.182;-0.348;2023-02-25T07:05:04;3.30;;;1.10;;
72493;SDS011;60520;49.182;-0.348;2023-02-25T07:07:32;3.08;;;1.13;;
72493;SDS011;60520;49.182;-0.348;2023-02-25T07:10:00;2.58;;;1.08;;
72493;SDS011;60520;49.182;-0.348;2023-02-25T07:12:27;2.33;;;1.23;;
72493;SDS011;60520;49.182;-0.348;2023-02-25T07:14:55;4.78;;;1.23;;
72493;SDS011;60520;49.182;-0.348;2023-02-25T07:17:22;2.10;;;1.02;;
72493;SDS011;60520;49.182;-0.348;2023-02-25T07:19:49;2.08;;;0.98;;
72493;SDS011;60520;49.182;-0.348;2023-02-25T07:22:16;2.65;;;1.00;;
72493;SDS011;60520;49.182;-0.348;2023-02-25T07:24:45;2.00;;;1.00;;
72493;SDS011;60520;49.182;-0.348;2023-02-25T07:27:12;2.05;;;0.90;;
72493;SDS011;60520;49.182;-0.348;2023-02-25T07:29:40;2.60;;;1.13;;
72493;SDS011;60520;49.182;-0.348;2023-02-25T07:32:07;3.15;;;1.00;;
72493;SDS011;60520;49.182;-0.348;2023-02-25T07:34:34;2.78;;;1.10;;
72493;SDS011;60520;49.182;-0.348;2023-02-25T07:37:01;2.45;;;0.90;;
72493;SDS011;60520;49.182;-0.348;2023-02-25T07:39:28;2.63;;;1.00;;
72493;SDS011;60520;49.182;-0.348;2023-02-25T07:41:57;3.20;;;1.00;;
72493;SDS011;60520;49.182;-0.348;2023-02-25T07:44:24;2.03;;;1.00;;
72493;SDS011;60520;49.182;-0.348;2023-02-25T07:46:51;2.88;;;1.10;;
72493;SDS011;60520;49.182;-0.348;2023-02-25T07:49:18;3.13;;;1.02;;
72493;SDS011;60520;49.182;-0.348;2023-02-25T07:51:45;2.72;;;1.10;;
72493;SDS011;60520;49.182;-0.348;2023-02-25T07:54:13;2.63;;;1.10;;
72493;SDS011;60520;49.182;-0.348;2023-02-25T07:56:41;2.38;;;0.98;;
72493;SDS011;60520;49.182;-0.348;2023-02-25T07:59:09;2.60;;;0.90;;
72493;SDS011;60520;49.182;-0.348;2023-02-25T08:01:36;2.42;;;1.02;;
72493;SDS011;60520;49.182;-0.348;2023-02-25T08:04:04;1.85;;;0.82;;
72493;SDS011;60520;49.182;-0.348;2023-02-25T08:06:34;2.72;;;1.00;;
72493;SDS011;60520;49.182;-0.348;2023-02-25T08:09:02;3.92;;;1.10;;
72493;SDS011;60520;49.182;-0.348;2023-02-25T08:11:30;3.38;;;1.00;;
72493;SDS011;60520;49.182;-0.348;2023-02-25T08:13:57;3.53;;;1.10;;
72493;SDS011;60520;49.182;-0.348;2023-02-25T08:16:26;3.17;;;0.93;;
72493;SDS011;60520;49.182;-0.348;2023-02-25T08:18:53;3.08;;;1.10;;
72493;SDS011;60520;49.182;-0.348;2023-02-25T08:21:21;1.52;;;0.90;;
72493;SDS011;60520;49.182;-0.348;2023-02-25T08:23:49;2.60;;;0.93;;
72493;SDS011;60520;49.182;-0.348;2023-02-25T08:26:16;3.58;;;1.05;;
72493;SDS011;60520;49.182;-0.348;2023-02-25T08:28:44;1.80;;;0.80;;
72493;SDS011;60520;49.182;-0.348;2023-02-25T08:31:12;3.05;;;1.05;;
72493;SDS011;60520;49.182;-0.348;2023-02-25T08:33:41;2.90;;;1.17;;
72493;SDS011;60520;49.182;-0.348;2023-02-25T08:36:08;2.13;;;0.93;;
72493;SDS011;60520;49.182;-0.348;2023-02-25T08:38:36;2.45;;;0.90;;
72493;SDS011;60520;49.182;-0.348;2023-02-25T08:41:03;2.28;;;0.98;;
72493;SDS011;60520;49.182;-0.348;2023-02-25T08:43:31;3.45;;;1.17;;
72493;SDS011;60520;49.182;-0.348;2023-02-25T08:45:58;2.72;;;1.10;;
72493;SDS011;60520;49.182;-0.348;2023-02-25T08:48:25;3.10;;;0.90;;
72493;SDS011;60520;49.182;-0.348;2023-02-25T08:50:54;4.35;;;1.38;;
72493;SDS011;60520;49.182;-0.348;2023-02-25T08:53:21;2.42;;;1.10;;
72493;SDS011;60520;49.182;-0.348;2023-02-25T08:55:48;3.65;;;1.10;;
72493;SDS011;60520;49.182;-0.348;2023-02-25T08:58:17;2.90;;;1.25;;
72493;SDS011;60520;49.182;-0.348;2023-02-25T09:00:45;6.55;;;1.30;;
72493;SDS011;60520;49.182;-0.348;2023-02-25T09:03:13;5.40;;;1.20;;
72493;SDS011;60520;49.182;-0.348;2023-02-25T09:05:41;3.05;;;1.13;;
72493;SDS011;60520;49.182;-0.348;2023-02-25T09:08:09;3.15;;;1.23;;
72493;SDS011;60520;49.182;-0.348;2023-02-25T09:10:36;4.15;;;1.10;;
72493;SDS011;60520;49.182;-0.348;2023-02-25T09:13:03;2.80;;;1.23;;
72493;SDS011;60520;49.182;-0.348;2023-02-25T09:15:30;3.75;;;1.20;;
72493;SDS011;60520;49.182;-0.348;2023-02-25T09:17:58;4.55;;;1.00;;
72493;SDS011;60520;49.182;-0.348;2023-02-25T09:20:25;3.55;;;1.20;;
72493;SDS011;60520;49.182;-0.348;2023-02-25T09:22:52;5.68;;;1.88;;
72493;SDS011;60520;49.182;-0.348;2023-02-25T09:25:21;5.72;;;1.92;;
72493;SDS011;60520;49.182;-0.348;2023-02-25T09:27:49;4.20;;;1.52;;
72493;SDS011;60520;49.182;-0.348;2023-02-25T09:30:16;4.22;;;1.88;;
72493;SDS011;60520;49.182;-0.348;2023-02-25T09:32:43;4.72;;;2.45;;
72493;SDS011;60520;49.182;-0.348;2023-02-25T09:35:10;4.68;;;2.25;;
72493;SDS011;60520;49.182;-0.348;2023-02-25T09:37:37;4.07;;;2.30;;
72493;SDS011;60520;49.182;-0.348;2023-02-25T09:40:05;8.43;;;3.10;;
72493;SDS011;60520;49.182;-0.348;2023-02-25T09:42:40;5.88;;;3.13;;
72493;SDS011;60520;49.182;-0.348;2023-02-25T09:45:12;6.22;;;3.13;;
72493;SDS011;60520;49.182;-0.348;2023-02-25T09:47:43;6.57;;;3.47;;
72493;SDS011;60520;49.182;-0.348;2023-02-25T09:50:11;8.40;;;3.70;;
72493;SDS011;60520;49.182;-0.348;2023-02-25T09:52:43;8.00;;;3.90;;
72493;SDS011;60520;49.182;-0.348;2023-02-25T09:55:14;5.78;;;3.40;;
72493;SDS011;60520;49.182;-0.348;2023-02-25T09:57:44;7.53;;;3.47;;
72493;SDS011;60520;49.182;-0.348;2023-02-25T10:00:15;6.25;;;3.80;;
72493;SDS011;60520;49.182;-0.348;2023-02-25T10:02:43;7.53;;;4.15;;
72493;SDS011;60520;49.182;-0.348;2023-02-25T10:05:16;9.00;;;4.03;;
72493;SDS011;60520;49.182;-0.348;2023-02-25T10:07:49;7.15;;;4.03;;
72493;SDS011;60520;49.182;-0.348;2023-02-25T10:10:18;8.73;;;4.50;;
72493;SDS011;60520;49.182;-0.348;2023-02-25T10:12:51;10.18;;;4.60;;
72493;SDS011;60520;49.182;-0.348;2023-02-25T10:15:26;7.70;;;3.97;;
72493;SDS011;60520;49.182;-0.348;2023-02-25T10:18:00;7.05;;;4.20;;
72493;SDS011;60520;49.182;-0.348;2023-02-25T10:23:17;6.97;;;4.63;;
72493;SDS011;60520;49.182;-0.348;2023-02-25T10:25:52;8.95;;;4.57;;
72493;SDS011;60520;49.182;-0.348;2023-02-25T10:28:21;6.60;;;4.30;;
72493;SDS011;60520;49.182;-0.348;2023-02-25T10:30:51;8.05;;;4.50;;
72493;SDS011;60520;49.182;-0.348;2023-02-25T10:33:21;7.15;;;4.57;;
72493;SDS011;60520;49.182;-0.348;2023-02-25T10:35:49;9.68;;;5.22;;
72493;SDS011;60520;49.182;-0.348;2023-02-25T10:38:19;9.85;;;5.22;;
72493;SDS011;60520;49.182;-0.348;2023-02-25T10:40:46;8.95;;;4.50;;
72493;SDS011;60520;49.182;-0.348;2023-02-25T10:43:17;11.95;;;5.20;;
72493;SDS011;60520;49.182;-0.348;2023-02-25T10:45:48;7.65;;;4.57;;
72493;SDS011;60520;49.182;-0.348;2023-02-25T10:48:18;7.32;;;4.70;;
72493;SDS011;60520;49.182;-0.348;2023-02-25T10:51:00;11.50;;;5.65;;
72493;SDS011;60520;49.182;-0.348;2023-02-25T10:53:29;10.63;;;5.18;;
72493;SDS011;60520;49.182;-0.348;2023-02-25T10:55:57;10.13;;;4.72;;
72493;SDS011;60520;49.182;-0.348;2023-02-25T10:58:32;7.00;;;4.80;;
72493;SDS011;60520;49.182;-0.348;2023-02-25T11:01:04;9.80;;;5.68;;
72493;SDS011;60520;49.182;-0.348;2023-02-25T11:03:32;10.07;;;5.30;;
72493;SDS011;60520;49.182;-0.348;2023-02-25T11:06:07;8.43;;;5.10;;
72493;SDS011;60520;49.182;-0.348;2023-02-25T11:08:35;11.77;;;5.80;;
72493;SDS011;60520;49.182;-0.348;2023-02-25T11:11:03;7.63;;;4.80;;
72493;SDS011;60520;49.182;-0.348;2023-02-25T11:13:33;8.00;;;4.97;;
72493;SDS011;60520;49.182;-0.348;2023-02-25T11:16:04;9.50;;;5.00;;
72493;SDS011;60520;49.182;-0.348;2023-02-25T11:18:32;10.57;;;5.15;;
72493;SDS011;60520;49.182;-0.348;2023-02-25T11:21:00;7.38;;;4.63;;
72493;SDS011;60520;49.182;-0.348;2023-02-25T11:23:31;12.68;;;4.93;;
72493;SDS011;60520;49.182;-0.348;2023-02-25T11:25:59;12.50;;;4.53;;
72493;SDS011;60520;49.182;-0.348;2023-02-25T11:28:27;9.73;;;4.95;;
72493;SDS011;60520;49.182;-0.348;2023-02-25T11:31:04;14.40;;;4.70;;
72493;SDS011;60520;49.182;-0.348;2023-02-25T11:33:34;10.73;;;4.80;;
72493;SDS011;60520;49.182;-0.348;2023-02-25T11:36:02;8.25;;;4.30;;
72493;SDS011;60520;49.182;-0.348;2023-02-25T11:38:31;8.23;;;4.72;;
72493;SDS011;60520;49.182;-0.348;2023-02-25T11:40:58;9.68;;;4.47;;
72493;SDS011;60520;49.182;-0.348;2023-02-25T11:43:26;10.45;;;4.85;;
72493;SDS011;60520;49.182;-0.348;2023-02-25T11:45:58;9.82;;;4.53;;
72493;SDS011;60520;49.182;-0.348;2023-02-25T11:48:28;26.48;;;5.30;;
72493;SDS011;60520;49.182;-0.348;2023-02-25T11:50:57;26.25;;;5.35;;
72493;SDS011;60520;49.182;-0.348;2023-02-25T11:56:09;21.42;;;5.07;;
72493;SDS011;60520;49.182;-0.348;2023-02-25T11:58:43;19.40;;;5.07;;
72493;SDS011;60520;49.182;-0.348;2023-02-25T12:01:15;20.50;;;5.22;;
72493;SDS011;60520;49.182;-0.348;2023-02-25T12:03:50;13.32;;;5.10;;
72493;SDS011;60520;49.182;-0.348;2023-02-25T12:06:23;19.20;;;4.63;;
72493;SDS011;60520;49.182;-0.348;2023-02-25T12:08:56;16.42;;;4.57;;
72493;SDS011;60520;49.182;-0.348;2023-02-25T12:14:25;11.95;;;4.40;;
72493;SDS011;60520;49.182;-0.348;2023-02-25T12:19:57;9.68;;;3.83;;
72493;SDS011;60520;49.182;-0.348;2023-02-25T12:25:19;9.45;;;3.67;;
72493;SDS011;60520;49.182;-0.348;2023-02-25T12:27:56;10.20;;;3.50;;
72493;SDS011;60520;49.182;-0.348;2023-02-25T12:33:13;10.57;;;3.83;;
72493;SDS011;60520;49.182;-0.348;2023-02-25T12:35:53;8.23;;;3.55;;
72493;SDS011;60520;49.182;-0.348;2023-02-25T12:38:30;11.88;;;3.42;;
72493;SDS011;60520;49.182;-0.348;2023-02-25T12:41:06;7.82;;;3.30;;
72493;SDS011;60520;49.182;-0.348;2023-02-25T12:43:38;8.63;;;3.17;;
72493;SDS011;60520;49.182;-0.348;2023-02-25T12:48:56;7.57;;;2.97;;
72493;SDS011;60520;49.182;-0.348;2023-02-25T12:54:20;9.40;;;3.35;;
72493;SDS011;60520;49.182;-0.348;2023-02-25T12:59:45;7.30;;;2.95;;
72493;SDS011;60520;49.182;-0.348;2023-02-25T13:02:26;8.63;;;2.90;;
72493;SDS011;60520;49.182;-0.348;2023-02-25T13:05:01;7.03;;;2.95;;
72493;SDS011;60520;49.182;-0.348;2023-02-25T13:07:41;9.48;;;3.15;;
72493;SDS011;60520;49.182;-0.348;2023-02-25T13:10:27;6.45;;;2.80;;
72493;SDS011;60520;49.182;-0.348;2023-02-25T13:13:00;13.77;;;2.80;;
72493;SDS011;60520;49.182;-0.348;2023-02-25T13:15:31;7.10;;;2.50;;
72493;SDS011;60520;49.182;-0.348;2023-02-25T13:18:06;7.63;;;2.65;;
72493;SDS011;60520;49.182;-0.348;2023-02-25T13:20:37;9.70;;;2.88;;
72493;SDS011;60520;49.182;-0.348;2023-02-25T13:23:15;5.68;;;2.70;;
72493;SDS011;60520;49.182;-0.348;2023-02-25T13:25:52;10.18;;;2.75;;
72493;SDS011;60520;49.182;-0.348;2023-02-25T13:28:27;7.82;;;2.67;;
72493;SDS011;60520;49.182;-0.348;2023-02-25T13:30:58;8.43;;;2.88;;
72493;SDS011;60520;49.182;-0.348;2023-02-25T13:33:37;17.63;;;2.70;;
72493;SDS011;60520;49.182;-0.348;2023-02-25T13:36:09;11.10;;;2.65;;
72493;SDS011;60520;49.182;-0.348;2023-02-25T13:38:42;21.27;;;3.45;;
72493;SDS011;60520;49.182;-0.348;2023-02-25T13:41:29;13.18;;;2.95;;
72493;SDS011;60520;49.182;-0.348;2023-02-25T13:46:45;13.52;;;3.03;;
72493;SDS011;60520;49.182;-0.348;2023-02-25T13:49:19;8.57;;;2.65;;
72493;SDS011;60520;49.182;-0.348;2023-02-25T13:51:59;17.77;;;3.00;;
72493;SDS011;60520;49.182;-0.348;2023-02-25T13:54:45;17.73;;;2.83;;
72493;SDS011;60520;49.182;-0.348;2023-02-25T13:57:25;14.88;;;2.92;;
72493;SDS011;60520;49.182;-0.348;2023-02-25T13:59:59;26.85;;;3.65;;
72493;SDS011;60520;49.182;-0.348;2023-02-25T14:02:41;34.15;;;4.40;;
72493;SDS011;60520;49.182;-0.348;2023-02-25T14:05:20;23.83;;;3.58;;
72493;SDS011;60520;49.182;-0.348;2023-02-25T14:08:00;30.42;;;3.60;;
72493;SDS011;60520;49.182;-0.348;2023-02-25T14:10:36;19.92;;;3.13;;
72493;SDS011;60520;49.182;-0.348;2023-02-25T14:15:53;15.30;;;3.50;;
72493;SDS011;60520;49.182;-0.348;2023-02-25T14:18:26;23.88;;;4.60;;
72493;SDS011;60520;49.182;-0.348;2023-02-25T14:21:02;20.75;;;4.30;;
72493;SDS011;60520;49.182;-0.348;2023-02-25T14:23:37;26.38;;;4.50;;
72493;SDS011;60520;49.182;-0.348;2023-02-25T14:26:20;50.28;;;5.00;;
72493;SDS011;60520;49.182;-0.348;2023-02-25T14:28:52;25.20;;;4.50;;
72493;SDS011;60520;49.182;-0.348;2023-02-25T14:31:26;28.67;;;5.78;;
72493;SDS011;60520;49.182;-0.348;2023-02-25T14:34:02;24.83;;;5.30;;
72493;SDS011;60520;49.182;-0.348;2023-02-25T14:36:49;22.17;;;4.97;;
72493;SDS011;60520;49.182;-0.348;2023-02-25T14:39:20;24.40;;;5.57;;
72493;SDS011;60520;49.182;-0.348;2023-02-25T14:41:55;13.23;;;5.00;;
72493;SDS011;60520;49.182;-0.348;2023-02-25T14:44:24;16.27;;;4.65;;
72493;SDS011;60520;49.182;-0.348;2023-02-25T14:46:55;12.27;;;4.78;;
72493;SDS011;60520;49.182;-0.348;2023-02-25T14:49:26;11.43;;;4.95;;
72493;SDS011;60520;49.182;-0.348;2023-02-25T14:57:32;16.55;;;5.05;;
72493;SDS011;60520;49.182;-0.348;2023-02-25T15:00:13;20.33;;;5.40;;
72493;SDS011;60520;49.182;-0.348;2023-02-25T15:02:52;14.95;;;5.28;;
72493;SDS011;60520;49.182;-0.348;2023-02-25T15:05:26;23.50;;;5.18;;
72493;SDS011;60520;49.182;-0.348;2023-02-25T15:08:04;28.75;;;4.90;;
72493;SDS011;60520;49.182;-0.348;2023-02-25T15:10:35;18.52;;;4.63;;
72493;SDS011;60520;49.182;-0.348;2023-02-25T15:13:23;14.18;;;5.25;;
72493;SDS011;60520;49.182;-0.348;2023-02-25T15:21:32;19.13;;;5.18;;
72493;SDS011;60520;49.182;-0.348;2023-02-25T15:24:01;16.23;;;4.65;;
72493;SDS011;60520;49.182;-0.348;2023-02-25T15:26:38;18.23;;;4.50;;
72493;SDS011;60520;49.182;-0.348;2023-02-25T15:29:11;15.05;;;4.50;;
72493;SDS011;60520;49.182;-0.348;2023-02-25T15:31:46;15.65;;;4.28;;
72493;SDS011;60520;49.182;-0.348;2023-02-25T15:34:33;11.82;;;4.15;;